Погода Санта Венерана 2 недели

Аура, Мальта

04 - 17 марта
  • 04марта
    Сегодня
    +12°
    +16°
    Практически безоблачно
    ВремяПогодаТемператураВлажностьДавлениеВетер, м/сВероятность осадков
    01:00Облачно с прояснениями+16°C76 %755 мм4.7 м/с2 %
    04:00Практически безоблачно+12°C81 %755 мм6.5 м/с7 %
    07:00Небольшая облачность+11°C73 %756 мм5.2 м/с24 %
    10:00Ясно и безоблачно+14°C66 %757 мм7.8 м/с38 %
    13:00Практически безоблачно+15°C61 %757 мм9.2 м/с4 %
    16:00Практически безоблачно+15°C60 %757 мм9.0 м/с3 %
    19:00Ясно и безоблачно+13°C60 %757 мм6.6 м/с5 %
    22:00Практически безоблачно+12°C56 %758 мм8.3 м/с15 %
  • 05марта
    Вторник
    +12°
    +17°
    Небольшая облачность
    ВремяПогодаТемператураВлажностьДавлениеВетер, м/сВероятность осадков
    01:00Небольшая облачность и лёгкий дождик+13°C63 %758 мм9.4 м/с27 %
    04:00Небольшая облачность+12°C61 %758 мм8.9 м/с29 %
    07:00Небольшая облачность+12°C68 %759 мм7.8 м/с20 %
    10:00Небольшая облачность+16°C64 %760 мм8.8 м/с17 %
    13:00Небольшая облачность+17°C57 %760 мм9.3 м/с2 %
    16:00Практически безоблачно+16°C56 %760 мм8.9 м/с2 %
    19:00Ясно и безоблачно+14°C67 %761 мм6.7 м/с2 %
    22:00Ясно и безоблачно+13°C72 %762 мм6.4 м/с2 %
  • 06марта
    Среда
    +10°
    +18°
    Ясно и безоблачно
    ВремяПогодаТемператураВлажностьДавлениеВетер, м/сВероятность осадков
    01:00Практически безоблачно+13°C78 %762 мм5.9 м/с2 %
    04:00Ясно и безоблачно+13°C79 %762 мм6.0 м/с2 %
    07:00Ясно и безоблачно+13°C79 %763 мм5.0 м/с2 %
    10:00Практически безоблачно+17°C72 %764 мм6.6 м/с2 %
    13:00Ясно и безоблачно+17°C68 %764 мм7.3 м/с2 %
    16:00Ясно и безоблачно+16°C56 %763 мм7.5 м/с2 %
    19:00Ясно и безоблачно+14°C67 %764 мм5.9 м/с2 %
    22:00Ясно и безоблачно+13°C75 %764 мм5.3 м/с2 %
  • 07марта
    Четверг
    +10°
    +18°
    Ясно и безоблачно
    ВремяПогодаТемператураВлажностьДавлениеВетер, м/сВероятность осадков
    01:00Ясно и безоблачно+12°C73 %763 мм4.3 м/с2 %
    04:00Ясно и безоблачно+11°C79 %762 мм3.0 м/с2 %
    07:00Ясно и безоблачно+11°C76 %763 мм2.6 м/с3 %
    10:00Ясно и безоблачно+16°C64 %764 мм3.6 м/с6 %
    13:00Ясно и безоблачно+17°C61 %763 мм4.5 м/с18 %
    16:00Ясно и безоблачно+17°C59 %762 мм4.8 м/с23 %
    19:00Ясно и безоблачно+14°C77 %762 мм2.4 м/с15 %
    22:00Ясно и безоблачно+13°C71 %762 мм2.4 м/с8 %
  • 08марта
    Пятница
    +14°
    +19°
    Облачно с прояснениями
    ВремяПогодаТемператураВлажностьДавлениеВетер, м/сВероятность осадков
    01:00Ясно и безоблачно+13°C81 %761 мм2.5 м/с2 %
    04:00Практически безоблачно+11°C85 %760 мм2.5 м/с2 %
    07:00Ясно и безоблачно+12°C80 %761 мм3.4 м/с2 %
    10:00Практически безоблачно+17°C68 %761 мм6.3 м/с2 %
    13:00Облачно с прояснениями+19°C70 %760 мм6.9 м/с2 %
    16:00Облачно с прояснениями+18°C78 %759 мм6.9 м/с2 %
    19:00Практически безоблачно+16°C89 %759 мм5.2 м/с2 %
    22:00Практически безоблачно+15°C87 %759 мм5.5 м/с2 %
Мы используем cookies
Соглашаюсь